• Join FlightAware (Why Join?)
  • Login
  • US Flag 
12:10AM EDT


 

Airport Tracker/Info


-or-


 

Live Flight TrackerFlight Track Log ✈ SKW5631 ✈ 01-Oct-2013 ✈ KSFO - KBUR

Flight Track Log - Related Links

Times and Time Zones

All times are in EDT time to prevent confusion due to time zone crossing. See the SKW5631 flight status page for this flight to view local times or setup timezone preferences in your user account.

Time Position Orientation Groundspeed Altitude Reporting Facility
EDT Latitude Longitude Course Direction KTS MPH feet Rate Location/Type
10:05PM 37.6500 -122.3667 138° Southeast 162 186 1,300  Level Northern Cal TRACON
10:06PM 37.7000 -122.4000 332° Northwest 232 267 3,400 2,160 Climbing Northern Cal TRACON
10:07PM 37.3173 -121.9994 135° Southeast  Level Estimated
10:07PM 37.6289 -122.4206 193° South 256 295 6,200  Level Oakland Center
10:08PM 37.2164 -121.8748 133° Southeast  Level Estimated
10:08PM 37.5514 -122.4133 176° South 275 316 8,800  Level Oakland Center
10:09PM 37.1154 -121.7505 135° Southeast  Level Estimated
10:09PM 37.4708 -122.3989 172° South 289 333 11,300  Level Oakland Center
10:10PM 37.0143 -121.6266 138° Southeast  Level Estimated
10:10PM 37.4000 -122.3336 144° Southeast 321 369 12,900  Level Oakland Center
10:11PM 37.3281 -122.2539 139° Southeast 343 395 14,500 1,620 Climbing Oakland Center
10:12PM 37.2547 -122.1719 138° Southeast 352 405 16,200 1,500 Climbing Oakland Center
10:13PM 37.1778 -122.0872 139° Southeast 366 421 17,600 1,380 Climbing Oakland Center
10:14PM 37.0842 -121.9819 138° Southeast 376 433 19,100 1,380 Climbing Oakland Center
10:15PM 37.0042 -121.8947 139° Southeast 382 440 20,500 1,200 Climbing Oakland Center
10:16PM 36.9219 -121.8069 140° Southeast 390 449 21,600 1,080 Climbing Oakland Center
10:17PM 36.8367 -121.7186 140° Southeast 397 457 22,700 960 Climbing Oakland Center
10:18PM 36.7586 -121.6322 138° Southeast 402 463 23,600 900 Climbing Oakland Center
10:19PM 36.6731 -121.5392 139° Southeast 408 470 24,600 1,020 Climbing Oakland Center
10:20PM 36.5694 -121.4269 139° Southeast 412 474 25,700 840 Climbing Oakland Center
10:21PM 36.4833 -121.3347 139° Southeast 410 472 26,400 600 Climbing Oakland Center
10:22PM 36.3967 -121.2372 138° Southeast 419 482 27,000 240 Climbing Oakland Center
10:23PM 36.3056 -121.1417 140° Southeast 427 491 27,000  Level Oakland Center
10:24PM 36.2161 -121.0436 138° Southeast 429 494 27,000  Level Oakland Center
10:25PM 36.1292 -120.9508 139° Southeast 419 482 27,000  Level Oakland Center
10:26PM 36.0422 -120.8594 140° Southeast 411 473 27,000  Level Oakland Center
10:27PM 35.9556 -120.7664 139° Southeast 413 475 27,000  Level Oakland Center
10:28PM 35.8681 -120.6747 140° Southeast 412 474 27,000  Level Oakland Center
10:29PM 35.7819 -120.5833 139° Southeast 410 472 27,000  Level Oakland Center
10:30PM 35.6950 -120.4922 140° Southeast 410 472 27,000  Level Oakland Center
10:31PM 35.5911 -120.3819 139° Southeast 409 471 27,000  Level Oakland Center
10:32PM 35.5031 -120.2894 139° Southeast 409 471 27,000 -120 Level Oakland Center
10:33PM 35.4294 -120.2150 141° Southeast 411 473 26,800 -720 Descending Oakland Center
10:34PM 35.3219 -120.1006 139° Southeast 418 481 25,600 -1,080 Descending Oakland Center
10:35PM 35.2325 -120.0086 140° Southeast 418 481 24,600 -1,080 Descending Los Angeles Center
10:36PM 35.1542 -119.9281 140° Southeast 387 445 23,300 -1,320 Descending Los Angeles Center
10:37PM 35.0739 -119.8419 139° Southeast 381 438 22,000 -1,320 Descending Los Angeles Center
10:38PM 35.0053 -119.7461 131° Southeast 378 435 20,700 -1,320 Descending Los Angeles Center
10:40PM 34.9367 -119.6536 132° Southeast 372 428 19,400 -1,500 Descending Los Angeles Center
10:41PM 34.8567 -119.5475 133° Southeast 357 411 17,700 -1,440 Descending Los Angeles Center
10:42PM 34.7928 -119.4625 132° Southeast 346 398 16,500 -1,140 Descending Los Angeles Center
10:43PM 34.7303 -119.3775 132° Southeast 340 391 15,400 -1,080 Descending Los Angeles Center
10:44PM 34.6675 -119.2942 132° Southeast 337 388 14,300 -1,080 Descending Los Angeles Center
10:45PM 34.6064 -119.2142 133° Southeast 328 377 13,200 -1,080 Descending Los Angeles Center
10:46PM 34.5467 -119.1344 132° Southeast 321 369 12,100 -1,080 Descending Los Angeles Center
10:47PM 34.4869 -119.0544 132° Southeast 319 367 11,100 -1,320 Descending Los Angeles Center
10:48PM 34.4292 -118.9792 133° Southeast 304 350 9,500 -1,920 Descending Los Angeles Center
10:49PM 34.3681 -118.8853 128° Southeast 296 341 7,200 -2,040 Descending Los Angeles Center
10:50PM 34.3206 -118.8075 126° Southeast 286 329 5,400 -1,320 Descending Los Angeles Center
10:51PM 34.2758 -118.7356 127° Southeast 275 316 4,500 -720 Descending Los Angeles Center
10:52PM 34.2369 -118.6714 126° Southeast 250 288 4,000 -300 Descending Los Angeles Center
10:53PM 34.2050 -118.6133 124° Southeast 217 250 4,000 -300 Level Los Angeles Center
10:53PM 34.2000 -118.5833 101° East 191 220 3,600 -540 Descending Southern California TRACON
10:54PM 34.2000 -118.5167 90° East 192 221 3,200 -720 Descending Southern California TRACON
10:55PM 34.2000 -118.4500 90° East 167 192 2,200 -900 Descending Southern California TRACON
10:56PM 34.2000 -118.4000 90° East 137 158 1,400 -840 Descending Southern California TRACON